sensor_id;sensor_type;location;lat;lon;timestamp;P1;durP1;ratioP1;P2;durP2;ratioP2
6394;SDS011;3230;42.588;23.358;2023-03-03T00:02:03;3.00;;;2.07;;
6394;SDS011;3230;42.588;23.358;2023-03-03T00:04:28;3.43;;;2.10;;
6394;SDS011;3230;42.588;23.358;2023-03-03T00:06:53;2.23;;;1.90;;
6394;SDS011;3230;42.588;23.358;2023-03-03T00:09:19;1.60;;;1.50;;
6394;SDS011;3230;42.588;23.358;2023-03-03T00:11:45;2.47;;;1.37;;
6394;SDS011;3230;42.588;23.358;2023-03-03T00:14:16;2.63;;;1.77;;
6394;SDS011;3230;42.588;23.358;2023-03-03T00:16:42;1.90;;;1.60;;
6394;SDS011;3230;42.588;23.358;2023-03-03T00:19:14;2.30;;;1.50;;
6394;SDS011;3230;42.588;23.358;2023-03-03T00:21:41;3.20;;;1.80;;
6394;SDS011;3230;42.588;23.358;2023-03-03T00:26:39;1.55;;;1.40;;
6394;SDS011;3230;42.588;23.358;2023-03-03T00:31:48;1.70;;;1.60;;
6394;SDS011;3230;42.588;23.358;2023-03-03T00:36:42;3.15;;;1.90;;
6394;SDS011;3230;42.588;23.358;2023-03-03T00:42:09;5.18;;;2.85;;
6394;SDS011;3230;42.588;23.358;2023-03-03T00:44:43;3.08;;;2.15;;
6394;SDS011;3230;42.588;23.358;2023-03-03T00:50:16;3.55;;;2.53;;
6394;SDS011;3230;42.588;23.358;2023-03-03T00:52:47;4.72;;;3.45;;
6394;SDS011;3230;42.588;23.358;2023-03-03T00:55:16;3.08;;;2.30;;
6394;SDS011;3230;42.588;23.358;2023-03-03T00:57:41;1.80;;;1.70;;
6394;SDS011;3230;42.588;23.358;2023-03-03T01:00:06;1.80;;;1.60;;
6394;SDS011;3230;42.588;23.358;2023-03-03T01:02:32;2.23;;;1.70;;
6394;SDS011;3230;42.588;23.358;2023-03-03T01:04:57;1.50;;;1.40;;
6394;SDS011;3230;42.588;23.358;2023-03-03T01:07:22;1.70;;;1.60;;
6394;SDS011;3230;42.588;23.358;2023-03-03T01:09:48;2.10;;;1.70;;
6394;SDS011;3230;42.588;23.358;2023-03-03T01:12:13;2.00;;;1.60;;
6394;SDS011;3230;42.588;23.358;2023-03-03T01:14:39;2.20;;;1.87;;
6394;SDS011;3230;42.588;23.358;2023-03-03T01:17:04;2.00;;;1.80;;
6394;SDS011;3230;42.588;23.358;2023-03-03T01:19:30;2.17;;;1.97;;
6394;SDS011;3230;42.588;23.358;2023-03-03T01:21:56;3.40;;;1.97;;
6394;SDS011;3230;42.588;23.358;2023-03-03T01:24:21;2.63;;;1.80;;
6394;SDS011;3230;42.588;23.358;2023-03-03T01:26:47;1.83;;;1.50;;
6394;SDS011;3230;42.588;23.358;2023-03-03T01:29:12;3.00;;;1.73;;
6394;SDS011;3230;42.588;23.358;2023-03-03T01:31:37;2.00;;;1.80;;
6394;SDS011;3230;42.588;23.358;2023-03-03T01:34:02;3.57;;;2.10;;
6394;SDS011;3230;42.588;23.358;2023-03-03T01:36:28;2.30;;;1.90;;
6394;SDS011;3230;42.588;23.358;2023-03-03T01:38:53;2.40;;;1.80;;
6394;SDS011;3230;42.588;23.358;2023-03-03T01:41:18;3.00;;;1.80;;
6394;SDS011;3230;42.588;23.358;2023-03-03T01:43:45;1.60;;;1.47;;
6394;SDS011;3230;42.588;23.358;2023-03-03T01:49:06;1.52;;;1.42;;
6394;SDS011;3230;42.588;23.358;2023-03-03T01:51:36;1.50;;;1.40;;
6394;SDS011;3230;42.588;23.358;2023-03-03T01:54:02;1.98;;;1.75;;
6394;SDS011;3230;42.588;23.358;2023-03-03T01:56:28;3.65;;;2.40;;
6394;SDS011;3230;42.588;23.358;2023-03-03T01:59:00;1.97;;;1.30;;
6394;SDS011;3230;42.588;23.358;2023-03-03T02:01:28;1.70;;;1.20;;
6394;SDS011;3230;42.588;23.358;2023-03-03T02:03:55;1.60;;;1.50;;
6394;SDS011;3230;42.588;23.358;2023-03-03T02:06:24;1.40;;;1.20;;
6394;SDS011;3230;42.588;23.358;2023-03-03T02:11:23;1.75;;;1.40;;
6394;SDS011;3230;42.588;23.358;2023-03-03T02:13:49;1.70;;;1.60;;
6394;SDS011;3230;42.588;23.358;2023-03-03T02:16:14;1.50;;;1.40;;
6394;SDS011;3230;42.588;23.358;2023-03-03T02:18:39;1.50;;;1.40;;
6394;SDS011;3230;42.588;23.358;2023-03-03T02:21:13;2.57;;;1.87;;
6394;SDS011;3230;42.588;23.358;2023-03-03T02:23:45;1.73;;;1.60;;
6394;SDS011;3230;42.588;23.358;2023-03-03T02:26:23;1.70;;;1.58;;
6394;SDS011;3230;42.588;23.358;2023-03-03T02:28:49;1.98;;;1.50;;
6394;SDS011;3230;42.588;23.358;2023-03-03T02:31:17;2.28;;;1.48;;
6394;SDS011;3230;42.588;23.358;2023-03-03T02:33:43;1.67;;;1.58;;
6394;SDS011;3230;42.588;23.358;2023-03-03T02:36:12;2.10;;;1.80;;
6394;SDS011;3230;42.588;23.358;2023-03-03T02:38:40;1.70;;;1.60;;
6394;SDS011;3230;42.588;23.358;2023-03-03T02:43:54;2.75;;;1.70;;
6394;SDS011;3230;42.588;23.358;2023-03-03T02:46:21;2.22;;;1.88;;
6394;SDS011;3230;42.588;23.358;2023-03-03T02:48:46;1.67;;;1.57;;
6394;SDS011;3230;42.588;23.358;2023-03-03T02:51:12;1.93;;;1.80;;
6394;SDS011;3230;42.588;23.358;2023-03-03T02:53:37;2.30;;;2.10;;
6394;SDS011;3230;42.588;23.358;2023-03-03T02:56:02;2.03;;;1.90;;
6394;SDS011;3230;42.588;23.358;2023-03-03T02:58:28;1.80;;;1.70;;
6394;SDS011;3230;42.588;23.358;2023-03-03T03:00:54;3.30;;;2.50;;
6394;SDS011;3230;42.588;23.358;2023-03-03T03:03:19;2.80;;;2.30;;
6394;SDS011;3230;42.588;23.358;2023-03-03T03:05:44;2.17;;;1.97;;
6394;SDS011;3230;42.588;23.358;2023-03-03T03:08:10;2.50;;;2.30;;
6394;SDS011;3230;42.588;23.358;2023-03-03T03:10:35;2.50;;;2.13;;
6394;SDS011;3230;42.588;23.358;2023-03-03T03:13:00;3.83;;;2.77;;
6394;SDS011;3230;42.588;23.358;2023-03-03T03:15:26;2.97;;;2.20;;
6394;SDS011;3230;42.588;23.358;2023-03-03T03:17:51;3.70;;;2.53;;
6394;SDS011;3230;42.588;23.358;2023-03-03T03:20:16;2.43;;;2.10;;
6394;SDS011;3230;42.588;23.358;2023-03-03T03:22:42;3.67;;;2.67;;
6394;SDS011;3230;42.588;23.358;2023-03-03T03:25:07;3.70;;;2.90;;
6394;SDS011;3230;42.588;23.358;2023-03-03T03:27:32;3.90;;;2.97;;
6394;SDS011;3230;42.588;23.358;2023-03-03T03:29:58;3.90;;;2.77;;
6394;SDS011;3230;42.588;23.358;2023-03-03T03:32:23;2.70;;;2.43;;
6394;SDS011;3230;42.588;23.358;2023-03-03T03:34:48;3.63;;;2.80;;
6394;SDS011;3230;42.588;23.358;2023-03-03T03:37:13;5.03;;;2.83;;
6394;SDS011;3230;42.588;23.358;2023-03-03T03:39:39;3.53;;;3.07;;
6394;SDS011;3230;42.588;23.358;2023-03-03T03:42:04;4.03;;;2.97;;
6394;SDS011;3230;42.588;23.358;2023-03-03T03:44:30;4.80;;;3.60;;
6394;SDS011;3230;42.588;23.358;2023-03-03T03:46:55;3.80;;;2.30;;
6394;SDS011;3230;42.588;23.358;2023-03-03T03:49:20;3.60;;;2.47;;
6394;SDS011;3230;42.588;23.358;2023-03-03T03:51:45;2.73;;;2.30;;
6394;SDS011;3230;42.588;23.358;2023-03-03T03:54:11;2.97;;;2.30;;
6394;SDS011;3230;42.588;23.358;2023-03-03T03:56:36;3.27;;;2.53;;
6394;SDS011;3230;42.588;23.358;2023-03-03T03:59:01;2.97;;;2.10;;
6394;SDS011;3230;42.588;23.358;2023-03-03T04:01:27;3.00;;;2.70;;
6394;SDS011;3230;42.588;23.358;2023-03-03T04:03:52;5.07;;;3.33;;
6394;SDS011;3230;42.588;23.358;2023-03-03T04:06:17;3.20;;;2.90;;
6394;SDS011;3230;42.588;23.358;2023-03-03T04:08:43;2.20;;;2.00;;
6394;SDS011;3230;42.588;23.358;2023-03-03T04:11:08;2.60;;;2.17;;
6394;SDS011;3230;42.588;23.358;2023-03-03T04:13:33;3.67;;;2.90;;
6394;SDS011;3230;42.588;23.358;2023-03-03T04:15:59;5.93;;;4.33;;
6394;SDS011;3230;42.588;23.358;2023-03-03T04:18:24;9.30;;;5.50;;
6394;SDS011;3230;42.588;23.358;2023-03-03T04:20:50;7.47;;;4.77;;
6394;SDS011;3230;42.588;23.358;2023-03-03T04:23:16;10.68;;;5.88;;
6394;SDS011;3230;42.588;23.358;2023-03-03T04:25:42;21.90;;;9.67;;
6394;SDS011;3230;42.588;23.358;2023-03-03T04:28:09;40.05;;;15.35;;
6394;SDS011;3230;42.588;23.358;2023-03-03T04:30:34;23.83;;;10.80;;
6394;SDS011;3230;42.588;23.358;2023-03-03T04:33:00;18.80;;;9.33;;
6394;SDS011;3230;42.588;23.358;2023-03-03T04:35:25;14.43;;;8.60;;
6394;SDS011;3230;42.588;23.358;2023-03-03T04:37:50;12.47;;;9.30;;
6394;SDS011;3230;42.588;23.358;2023-03-03T04:40:16;10.60;;;7.57;;
6394;SDS011;3230;42.588;23.358;2023-03-03T04:42:42;17.63;;;11.48;;
6394;SDS011;3230;42.588;23.358;2023-03-03T04:45:07;13.40;;;9.90;;
6394;SDS011;3230;42.588;23.358;2023-03-03T04:47:33;16.07;;;10.97;;
6394;SDS011;3230;42.588;23.358;2023-03-03T04:49:58;18.03;;;11.30;;
6394;SDS011;3230;42.588;23.358;2023-03-03T04:52:23;10.77;;;7.60;;
6394;SDS011;3230;42.588;23.358;2023-03-03T04:54:48;11.20;;;7.63;;
6394;SDS011;3230;42.588;23.358;2023-03-03T04:57:14;9.10;;;6.07;;
6394;SDS011;3230;42.588;23.358;2023-03-03T04:59:39;11.77;;;6.50;;
6394;SDS011;3230;42.588;23.358;2023-03-03T05:02:04;12.07;;;7.07;;
6394;SDS011;3230;42.588;23.358;2023-03-03T05:04:29;17.77;;;6.50;;
6394;SDS011;3230;42.588;23.358;2023-03-03T05:06:55;10.00;;;6.27;;
6394;SDS011;3230;42.588;23.358;2023-03-03T05:09:21;10.27;;;6.40;;
6394;SDS011;3230;42.588;23.358;2023-03-03T05:11:46;13.43;;;7.47;;
6394;SDS011;3230;42.588;23.358;2023-03-03T05:14:12;9.73;;;6.13;;
6394;SDS011;3230;42.588;23.358;2023-03-03T05:16:37;11.27;;;6.43;;
6394;SDS011;3230;42.588;23.358;2023-03-03T05:19:02;10.63;;;7.60;;
6394;SDS011;3230;42.588;23.358;2023-03-03T05:21:27;11.80;;;7.43;;
6394;SDS011;3230;42.588;23.358;2023-03-03T05:23:53;7.93;;;6.07;;
6394;SDS011;3230;42.588;23.358;2023-03-03T05:26:18;24.80;;;14.20;;
6394;SDS011;3230;42.588;23.358;2023-03-03T05:28:43;14.73;;;9.53;;
6394;SDS011;3230;42.588;23.358;2023-03-03T05:31:08;8.60;;;5.30;;
6394;SDS011;3230;42.588;23.358;2023-03-03T05:33:34;5.33;;;4.23;;
6394;SDS011;3230;42.588;23.358;2023-03-03T05:35:59;7.37;;;5.03;;
6394;SDS011;3230;42.588;23.358;2023-03-03T05:38:24;6.53;;;4.80;;
6394;SDS011;3230;42.588;23.358;2023-03-03T05:40:50;9.97;;;5.13;;
6394;SDS011;3230;42.588;23.358;2023-03-03T05:43:15;7.00;;;5.00;;
6394;SDS011;3230;42.588;23.358;2023-03-03T05:45:40;10.40;;;6.20;;
6394;SDS011;3230;42.588;23.358;2023-03-03T05:48:06;11.07;;;6.70;;
6394;SDS011;3230;42.588;23.358;2023-03-03T05:50:31;9.60;;;5.90;;
6394;SDS011;3230;42.588;23.358;2023-03-03T05:52:56;8.40;;;5.60;;
6394;SDS011;3230;42.588;23.358;2023-03-03T05:55:22;8.03;;;5.27;;
6394;SDS011;3230;42.588;23.358;2023-03-03T05:57:47;6.87;;;4.60;;
6394;SDS011;3230;42.588;23.358;2023-03-03T06:00:13;10.77;;;6.10;;
6394;SDS011;3230;42.588;23.358;2023-03-03T06:02:38;7.40;;;4.73;;
6394;SDS011;3230;42.588;23.358;2023-03-03T06:05:04;6.10;;;4.60;;
6394;SDS011;3230;42.588;23.358;2023-03-03T06:07:29;6.03;;;4.20;;
6394;SDS011;3230;42.588;23.358;2023-03-03T06:09:54;6.80;;;5.40;;
6394;SDS011;3230;42.588;23.358;2023-03-03T06:12:19;6.43;;;5.00;;
6394;SDS011;3230;42.588;23.358;2023-03-03T06:14:45;12.83;;;6.60;;
6394;SDS011;3230;42.588;23.358;2023-03-03T06:17:10;12.07;;;8.00;;
6394;SDS011;3230;42.588;23.358;2023-03-03T06:19:36;7.70;;;5.30;;
6394;SDS011;3230;42.588;23.358;2023-03-03T06:22:01;42.87;;;16.90;;
6394;SDS011;3230;42.588;23.358;2023-03-03T06:24:26;23.80;;;12.03;;
6394;SDS011;3230;42.588;23.358;2023-03-03T06:26:55;13.13;;;7.55;;
6394;SDS011;3230;42.588;23.358;2023-03-03T06:29:20;17.05;;;10.75;;
6394;SDS011;3230;42.588;23.358;2023-03-03T06:31:45;15.23;;;10.30;;
6394;SDS011;3230;42.588;23.358;2023-03-03T06:34:11;11.70;;;6.40;;
6394;SDS011;3230;42.588;23.358;2023-03-03T06:36:36;9.43;;;7.00;;
6394;SDS011;3230;42.588;23.358;2023-03-03T06:39:01;9.53;;;6.27;;
6394;SDS011;3230;42.588;23.358;2023-03-03T06:41:27;10.60;;;6.90;;
6394;SDS011;3230;42.588;23.358;2023-03-03T06:43:53;8.20;;;5.27;;
6394;SDS011;3230;42.588;23.358;2023-03-03T06:46:18;7.53;;;4.57;;
6394;SDS011;3230;42.588;23.358;2023-03-03T06:48:43;11.10;;;6.30;;
6394;SDS011;3230;42.588;23.358;2023-03-03T06:51:15;9.27;;;6.60;;
6394;SDS011;3230;42.588;23.358;2023-03-03T06:53:44;5.47;;;4.35;;
6394;SDS011;3230;42.588;23.358;2023-03-03T06:56:09;7.53;;;4.90;;
6394;SDS011;3230;42.588;23.358;2023-03-03T06:58:35;5.33;;;3.97;;
6394;SDS011;3230;42.588;23.358;2023-03-03T07:01:00;5.93;;;4.03;;
6394;SDS011;3230;42.588;23.358;2023-03-03T07:03:27;11.90;;;6.47;;
6394;SDS011;3230;42.588;23.358;2023-03-03T07:05:55;16.05;;;9.68;;
6394;SDS011;3230;42.588;23.358;2023-03-03T07:08:21;7.60;;;4.80;;
6394;SDS011;3230;42.588;23.358;2023-03-03T07:10:47;12.07;;;8.75;;
6394;SDS011;3230;42.588;23.358;2023-03-03T07:15:38;5.00;;;3.50;;
6394;SDS011;3230;42.588;23.358;2023-03-03T07:18:04;4.00;;;3.60;;
6394;SDS011;3230;42.588;23.358;2023-03-03T07:20:35;8.10;;;4.90;;
6394;SDS011;3230;42.588;23.358;2023-03-03T07:23:07;3.72;;;3.00;;
6394;SDS011;3230;42.588;23.358;2023-03-03T07:25:34;3.80;;;3.00;;
6394;SDS011;3230;42.588;23.358;2023-03-03T07:30:39;9.48;;;3.50;;
6394;SDS011;3230;42.588;23.358;2023-03-03T07:33:07;3.47;;;2.75;;
6394;SDS011;3230;42.588;23.358;2023-03-03T07:35:42;4.35;;;2.80;;
6394;SDS011;3230;42.588;23.358;2023-03-03T07:40:53;3.58;;;3.20;;
6394;SDS011;3230;42.588;23.358;2023-03-03T07:45:51;6.43;;;4.90;;
6394;SDS011;3230;42.588;23.358;2023-03-03T07:48:30;9.60;;;6.40;;
6394;SDS011;3230;42.588;23.358;2023-03-03T07:51:00;6.82;;;5.00;;
6394;SDS011;3230;42.588;23.358;2023-03-03T07:53:30;4.00;;;3.33;;
6394;SDS011;3230;42.588;23.358;2023-03-03T07:55:58;4.95;;;3.65;;
6394;SDS011;3230;42.588;23.358;2023-03-03T07:58:35;10.30;;;7.03;;
6394;SDS011;3230;42.588;23.358;2023-03-03T08:03:45;6.93;;;4.40;;
6394;SDS011;3230;42.588;23.358;2023-03-03T08:08:51;7.75;;;5.57;;
6394;SDS011;3230;42.588;23.358;2023-03-03T08:11:16;5.13;;;3.50;;
6394;SDS011;3230;42.588;23.358;2023-03-03T08:13:42;3.93;;;3.53;;
6394;SDS011;3230;42.588;23.358;2023-03-03T08:18:39;4.43;;;3.57;;
6394;SDS011;3230;42.588;23.358;2023-03-03T08:23:31;3.80;;;2.80;;
6394;SDS011;3230;42.588;23.358;2023-03-03T08:25:57;4.70;;;3.70;;
6394;SDS011;3230;42.588;23.358;2023-03-03T08:28:22;5.90;;;4.10;;
6394;SDS011;3230;42.588;23.358;2023-03-03T08:30:47;4.80;;;4.07;;
6394;SDS011;3230;42.588;23.358;2023-03-03T08:33:13;5.20;;;3.43;;
6394;SDS011;3230;42.588;23.358;2023-03-03T08:35:39;5.37;;;4.20;;
6394;SDS011;3230;42.588;23.358;2023-03-03T08:38:05;6.63;;;4.20;;
6394;SDS011;3230;42.588;23.358;2023-03-03T08:40:30;5.03;;;4.03;;
6394;SDS011;3230;42.588;23.358;2023-03-03T08:42:56;6.47;;;4.37;;
6394;SDS011;3230;42.588;23.358;2023-03-03T08:45:22;5.90;;;4.00;;
6394;SDS011;3230;42.588;23.358;2023-03-03T08:47:48;7.70;;;5.07;;
6394;SDS011;3230;42.588;23.358;2023-03-03T08:50:13;9.20;;;6.20;;
6394;SDS011;3230;42.588;23.358;2023-03-03T08:52:39;8.20;;;5.97;;
6394;SDS011;3230;42.588;23.358;2023-03-03T08:55:04;7.77;;;5.13;;
6394;SDS011;3230;42.588;23.358;2023-03-03T08:57:30;13.20;;;7.70;;
6394;SDS011;3230;42.588;23.358;2023-03-03T08:59:55;16.23;;;9.07;;
6394;SDS011;3230;42.588;23.358;2023-03-03T09:02:20;11.00;;;6.40;;
6394;SDS011;3230;42.588;23.358;2023-03-03T09:04:46;7.77;;;5.50;;
6394;SDS011;3230;42.588;23.358;2023-03-03T09:07:11;6.93;;;5.30;;
6394;SDS011;3230;42.588;23.358;2023-03-03T09:09:36;33.90;;;24.90;;
6394;SDS011;3230;42.588;23.358;2023-03-03T09:12:05;10.30;;;6.57;;
6394;SDS011;3230;42.588;23.358;2023-03-03T09:14:37;7.30;;;5.43;;
6394;SDS011;3230;42.588;23.358;2023-03-03T09:17:06;8.80;;;6.07;;
6394;SDS011;3230;42.588;23.358;2023-03-03T09:19:40;7.07;;;4.88;;
6394;SDS011;3230;42.588;23.358;2023-03-03T09:22:18;90.77;;;51.60;;
6394;SDS011;3230;42.588;23.358;2023-03-03T09:24:43;21.13;;;14.45;;
6394;SDS011;3230;42.588;23.358;2023-03-03T09:27:18;12.60;;;10.40;;
6394;SDS011;3230;42.588;23.358;2023-03-03T09:29:43;7.07;;;4.38;;
6394;SDS011;3230;42.588;23.358;2023-03-03T09:34:53;3.88;;;3.47;;
6394;SDS011;3230;42.588;23.358;2023-03-03T09:39:48;4.32;;;3.72;;
6394;SDS011;3230;42.588;23.358;2023-03-03T09:42:35;6.90;;;5.40;;
6394;SDS011;3230;42.588;23.358;2023-03-03T09:45:14;16.57;;;9.20;;
6394;SDS011;3230;42.588;23.358;2023-03-03T09:50:32;9.32;;;6.32;;
6394;SDS011;3230;42.588;23.358;2023-03-03T10:07:57;12.63;;;7.75;;
6394;SDS011;3230;42.588;23.358;2023-03-03T10:10:32;18.85;;;10.65;;
6394;SDS011;3230;42.588;23.358;2023-03-03T10:18:29;25.17;;;12.93;;
6394;SDS011;3230;42.588;23.358;2023-03-03T10:23:37;14.57;;;9.27;;
6394;SDS011;3230;42.588;23.358;2023-03-03T10:39:09;33.70;;;18.93;;
6394;SDS011;3230;42.588;23.358;2023-03-03T10:41:50;22.80;;;13.47;;
6394;SDS011;3230;42.588;23.358;2023-03-03T10:47:31;21.23;;;13.73;;
6394;SDS011;3230;42.588;23.358;2023-03-03T10:52:45;14.65;;;9.60;;
6394;SDS011;3230;42.588;23.358;2023-03-03T10:57:46;70.53;;;51.33;;
6394;SDS011;3230;42.588;23.358;2023-03-03T11:05:31;16.00;;;9.47;;
6394;SDS011;3230;42.588;23.358;2023-03-03T11:08:00;14.73;;;9.17;;
6394;SDS011;3230;42.588;23.358;2023-03-03T11:21:40;23.30;;;13.37;;
6394;SDS011;3230;42.588;23.358;2023-03-03T11:31:47;19.30;;;11.75;;
6394;SDS011;3230;42.588;23.358;2023-03-03T11:34:57;23.23;;;11.68;;
6394;SDS011;3230;42.588;23.358;2023-03-03T11:39:56;30.83;;;18.38;;
6394;SDS011;3230;42.588;23.358;2023-03-03T11:42:28;20.92;;;12.80;;
6394;SDS011;3230;42.588;23.358;2023-03-03T11:45:01;19.67;;;12.53;;
6394;SDS011;3230;42.588;23.358;2023-03-03T11:47:38;22.73;;;12.57;;
6394;SDS011;3230;42.588;23.358;2023-03-03T11:55:41;20.23;;;11.87;;
6394;SDS011;3230;42.588;23.358;2023-03-03T11:58:21;25.88;;;17.83;;
6394;SDS011;3230;42.588;23.358;2023-03-03T12:14:10;22.47;;;13.87;;
6394;SDS011;3230;42.588;23.358;2023-03-03T12:19:31;23.10;;;13.15;;
6394;SDS011;3230;42.588;23.358;2023-03-03T12:32:13;22.77;;;13.33;;
6394;SDS011;3230;42.588;23.358;2023-03-03T12:34:59;34.85;;;18.40;;
6394;SDS011;3230;42.588;23.358;2023-03-03T12:37:46;33.43;;;17.27;;
6394;SDS011;3230;42.588;23.358;2023-03-03T12:40:17;25.92;;;13.05;;
6394;SDS011;3230;42.588;23.358;2023-03-03T12:45:22;22.57;;;13.30;;
6394;SDS011;3230;42.588;23.358;2023-03-03T12:47:59;40.37;;;25.50;;
6394;SDS011;3230;42.588;23.358;2023-03-03T12:50:47;26.50;;;15.50;;
6394;SDS011;3230;42.588;23.358;2023-03-03T13:03:27;44.67;;;27.80;;
6394;SDS011;3230;42.588;23.358;2023-03-03T13:06:00;35.23;;;18.53;;
6394;SDS011;3230;42.588;23.358;2023-03-03T13:08:34;42.30;;;23.97;;
6394;SDS011;3230;42.588;23.358;2023-03-03T13:13:48;58.57;;;32.27;;
6394;SDS011;3230;42.588;23.358;2023-03-03T13:16:21;60.93;;;33.60;;
6394;SDS011;3230;42.588;23.358;2023-03-03T13:21:35;116.33;;;59.70;;
6394;SDS011;3230;42.588;23.358;2023-03-03T13:24:22;36.67;;;20.20;;
6394;SDS011;3230;42.588;23.358;2023-03-03T13:26:57;40.83;;;21.87;;
6394;SDS011;3230;42.588;23.358;2023-03-03T13:31:56;41.83;;;24.67;;
6394;SDS011;3230;42.588;23.358;2023-03-03T13:37:14;38.13;;;24.77;;
6394;SDS011;3230;42.588;23.358;2023-03-03T13:39:48;19.90;;;11.60;;
6394;SDS011;3230;42.588;23.358;2023-03-03T13:42:26;34.60;;;21.27;;
6394;SDS011;3230;42.588;23.358;2023-03-03T13:44:53;26.15;;;15.18;;
6394;SDS011;3230;42.588;23.358;2023-03-03T13:49:54;19.98;;;11.32;;
6394;SDS011;3230;42.588;23.358;2023-03-03T13:52:27;20.03;;;10.90;;
6394;SDS011;3230;42.588;23.358;2023-03-03T14:03:02;21.40;;;12.30;;
6394;SDS011;3230;42.588;23.358;2023-03-03T14:08:00;19.65;;;11.35;;
6394;SDS011;3230;42.588;23.358;2023-03-03T14:13:11;21.73;;;11.60;;
6394;SDS011;3230;42.588;23.358;2023-03-03T14:15:47;19.80;;;12.37;;
6394;SDS011;3230;42.588;23.358;2023-03-03T14:18:17;29.00;;;14.30;;
6394;SDS011;3230;42.588;23.358;2023-03-03T14:20:47;33.88;;;18.73;;
6394;SDS011;3230;42.588;23.358;2023-03-03T14:23:15;29.20;;;15.87;;
6394;SDS011;3230;42.588;23.358;2023-03-03T14:25:58;25.40;;;14.57;;
6394;SDS011;3230;42.588;23.358;2023-03-03T14:28:36;22.57;;;13.60;;
6394;SDS011;3230;42.588;23.358;2023-03-03T14:31:08;32.38;;;16.58;;
6394;SDS011;3230;42.588;23.358;2023-03-03T14:33:38;24.70;;;13.73;;
6394;SDS011;3230;42.588;23.358;2023-03-03T14:36:09;24.77;;;13.50;;
6394;SDS011;3230;42.588;23.358;2023-03-03T14:38:39;36.70;;;17.80;;
6394;SDS011;3230;42.588;23.358;2023-03-03T14:43:38;22.63;;;12.20;;
6394;SDS011;3230;42.588;23.358;2023-03-03T14:46:45;20.00;;;12.20;;
6394;SDS011;3230;42.588;23.358;2023-03-03T14:48:54;36.53;;;12.90;;
6394;SDS011;3230;42.588;23.358;2023-03-03T14:53:53;45.30;;;13.50;;
6394;SDS011;3230;42.588;23.358;2023-03-03T14:58:46;37.33;;;14.73;;
6394;SDS011;3230;42.588;23.358;2023-03-03T15:03:37;69.90;;;16.00;;
6394;SDS011;3230;42.588;23.358;2023-03-03T15:06:11;142.97;;;16.23;;
6394;SDS011;3230;42.588;23.358;2023-03-03T15:08:40;52.87;;;15.93;;
6394;SDS011;3230;42.588;23.358;2023-03-03T15:11:13;173.83;;;16.60;;
6394;SDS011;3230;42.588;23.358;2023-03-03T15:13:42;348.08;;;39.35;;
6394;SDS011;3230;42.588;23.358;2023-03-03T15:16:17;319.00;;;18.13;;
6394;SDS011;3230;42.588;23.358;2023-03-03T15:21:20;200.70;;;19.10;;
6394;SDS011;3230;42.588;23.358;2023-03-03T15:39:17;235.88;;;19.70;;
6394;SDS011;3230;42.588;23.358;2023-03-03T15:42:01;327.38;;;31.98;;
6394;SDS011;3230;42.588;23.358;2023-03-03T16:02:45;181.95;;;14.57;;
6394;SDS011;3230;42.588;23.358;2023-03-03T16:05:21;275.03;;;15.03;;
6394;SDS011;3230;42.588;23.358;2023-03-03T16:07:54;144.10;;;16.30;;
6394;SDS011;3230;42.588;23.358;2023-03-03T16:18:18;108.35;;;22.98;;
6394;SDS011;3230;42.588;23.358;2023-03-03T16:30:57;251.75;;;26.30;;
6394;SDS011;3230;42.588;23.358;2023-03-03T16:33:32;187.13;;;36.05;;
6394;SDS011;3230;42.588;23.358;2023-03-03T16:36:07;88.20;;;21.77;;
6394;SDS011;3230;42.588;23.358;2023-03-03T16:38:40;263.48;;;19.15;;
6394;SDS011;3230;42.588;23.358;2023-03-03T16:41:09;217.80;;;19.27;;
6394;SDS011;3230;42.588;23.358;2023-03-03T16:46:06;180.60;;;19.20;;
6394;SDS011;3230;42.588;23.358;2023-03-03T16:56:02;510.88;;;24.13;;
6394;SDS011;3230;42.588;23.358;2023-03-03T17:01:24;333.48;;;22.45;;
6394;SDS011;3230;42.588;23.358;2023-03-03T17:14:40;299.48;;;20.48;;
6394;SDS011;3230;42.588;23.358;2023-03-03T17:17:29;310.30;;;20.90;;
6394;SDS011;3230;42.588;23.358;2023-03-03T17:22:23;308.40;;;26.85;;
6394;SDS011;3230;42.588;23.358;2023-03-03T17:27:38;233.02;;;16.90;;
6394;SDS011;3230;42.588;23.358;2023-03-03T17:32:54;226.63;;;17.73;;
6394;SDS011;3230;42.588;23.358;2023-03-03T17:43:14;81.97;;;30.20;;
6394;SDS011;3230;42.588;23.358;2023-03-03T17:45:41;50.95;;;21.58;;
6394;SDS011;3230;42.588;23.358;2023-03-03T18:06:12;48.70;;;22.58;;
6394;SDS011;3230;42.588;23.358;2023-03-03T18:14:15;137.73;;;68.83;;
6394;SDS011;3230;42.588;23.358;2023-03-03T18:19:20;54.53;;;19.58;;
6394;SDS011;3230;42.588;23.358;2023-03-03T18:24:52;83.10;;;26.73;;
6394;SDS011;3230;42.588;23.358;2023-03-03T18:37:48;21.88;;;12.55;;
6394;SDS011;3230;42.588;23.358;2023-03-03T18:40:18;22.40;;;11.82;;
6394;SDS011;3230;42.588;23.358;2023-03-03T18:42:45;22.60;;;11.10;;
6394;SDS011;3230;42.588;23.358;2023-03-03T18:53:14;72.47;;;40.33;;
6394;SDS011;3230;42.588;23.358;2023-03-03T18:55:42;55.13;;;28.77;;
6394;SDS011;3230;42.588;23.358;2023-03-03T19:00:53;38.63;;;19.08;;
6394;SDS011;3230;42.588;23.358;2023-03-03T19:05:53;28.80;;;15.95;;
6394;SDS011;3230;42.588;23.358;2023-03-03T19:15:57;54.25;;;26.17;;
6394;SDS011;3230;42.588;23.358;2023-03-03T19:18:24;52.88;;;24.85;;
6394;SDS011;3230;42.588;23.358;2023-03-03T19:20:56;57.70;;;26.63;;
6394;SDS011;3230;42.588;23.358;2023-03-03T19:28:40;35.55;;;16.67;;
6394;SDS011;3230;42.588;23.358;2023-03-03T19:38:39;56.70;;;23.60;;
6394;SDS011;3230;42.588;23.358;2023-03-03T19:41:19;57.67;;;24.65;;
6394;SDS011;3230;42.588;23.358;2023-03-03T19:43:50;55.67;;;22.63;;
6394;SDS011;3230;42.588;23.358;2023-03-03T19:51:34;44.88;;;20.50;;
6394;SDS011;3230;42.588;23.358;2023-03-03T20:03:59;50.77;;;23.33;;
6394;SDS011;3230;42.588;23.358;2023-03-03T20:09:29;36.00;;;16.80;;
6394;SDS011;3230;42.588;23.358;2023-03-03T20:12:15;41.40;;;19.92;;
6394;SDS011;3230;42.588;23.358;2023-03-03T20:14:43;37.33;;;18.13;;
6394;SDS011;3230;42.588;23.358;2023-03-03T20:17:15;43.95;;;21.67;;
6394;SDS011;3230;42.588;23.358;2023-03-03T20:19:49;48.67;;;21.35;;
6394;SDS011;3230;42.588;23.358;2023-03-03T20:32:22;72.80;;;29.13;;
6394;SDS011;3230;42.588;23.358;2023-03-03T20:40:31;241.55;;;66.60;;
6394;SDS011;3230;42.588;23.358;2023-03-03T20:43:06;317.13;;;88.70;;
6394;SDS011;3230;42.588;23.358;2023-03-03T20:45:42;302.58;;;84.55;;
6394;SDS011;3230;42.588;23.358;2023-03-03T21:00:44;84.25;;;33.58;;
6394;SDS011;3230;42.588;23.358;2023-03-03T21:08:20;79.38;;;31.83;;
6394;SDS011;3230;42.588;23.358;2023-03-03T21:11:03;98.40;;;37.00;;
6394;SDS011;3230;42.588;23.358;2023-03-03T21:13:37;85.53;;;36.60;;
6394;SDS011;3230;42.588;23.358;2023-03-03T21:18:35;52.70;;;25.33;;
6394;SDS011;3230;42.588;23.358;2023-03-03T21:21:01;73.93;;;23.97;;
6394;SDS011;3230;42.588;23.358;2023-03-03T21:23:26;47.63;;;24.53;;
6394;SDS011;3230;42.588;23.358;2023-03-03T21:25:52;46.00;;;21.10;;
6394;SDS011;3230;42.588;23.358;2023-03-03T21:36:07;41.95;;;21.85;;
6394;SDS011;3230;42.588;23.358;2023-03-03T21:38:33;36.83;;;19.88;;
6394;SDS011;3230;42.588;23.358;2023-03-03T21:40:59;42.57;;;19.53;;
6394;SDS011;3230;42.588;23.358;2023-03-03T21:43:35;47.42;;;23.85;;
6394;SDS011;3230;42.588;23.358;2023-03-03T21:46:00;49.25;;;21.95;;
6394;SDS011;3230;42.588;23.358;2023-03-03T21:48:25;41.77;;;20.17;;
6394;SDS011;3230;42.588;23.358;2023-03-03T21:50:50;42.53;;;18.87;;
6394;SDS011;3230;42.588;23.358;2023-03-03T21:53:16;67.27;;;33.10;;
6394;SDS011;3230;42.588;23.358;2023-03-03T21:55:43;55.05;;;26.33;;
6394;SDS011;3230;42.588;23.358;2023-03-03T21:58:12;41.17;;;20.60;;
6394;SDS011;3230;42.588;23.358;2023-03-03T22:00:38;78.70;;;23.50;;
6394;SDS011;3230;42.588;23.358;2023-03-03T22:03:04;211.70;;;19.13;;
6394;SDS011;3230;42.588;23.358;2023-03-03T22:05:29;89.97;;;17.43;;
6394;SDS011;3230;42.588;23.358;2023-03-03T22:07:54;203.27;;;18.43;;